Alplaus, New York
Current Conditions -  °F | °C
As of 11:51 AM on Friday 28 Nov 2014 (Local Time) from KALB Reporting Station
Broken Clouds Broken Clouds  
Wind Chill: 22°   Ceiling: 7000
Heat Index: 30°   Visibility: 10mi
Dew Point: 16°   Wind: 8mph
Humidity: 56%   Direction: 310°NW
Pressure: 30.15"   Gusts: NA
Location:  42.86°N, 73.9°W
Report Text: KALB 281651Z 31007KT 10SM FEW033 SCT055 BKN070 M01/M09 A3015 RMK AO2 SLP211 T10111089
Loading
Personal Weather Stations






























Interactive Weather Map New forecast layout! Learn more

10-Day Weather Forecast

Advertisements
Track Severe Weather on mobile